sensor_id;sensor_type;location;lat;lon;timestamp;P1;durP1;ratioP1;P2;durP2;ratioP2
32228;SDS011;18717;48.034;11.186;2022-12-07T00:00:55;19.15;;;14.65;;
32228;SDS011;18717;48.034;11.186;2022-12-07T00:03:24;20.73;;;15.70;;
32228;SDS011;18717;48.034;11.186;2022-12-07T00:05:52;20.70;;;14.90;;
32228;SDS011;18717;48.034;11.186;2022-12-07T00:08:20;20.58;;;14.48;;
32228;SDS011;18717;48.034;11.186;2022-12-07T00:10:47;21.90;;;15.20;;
32228;SDS011;18717;48.034;11.186;2022-12-07T00:13:15;21.30;;;14.77;;
32228;SDS011;18717;48.034;11.186;2022-12-07T00:15:43;20.17;;;15.25;;
32228;SDS011;18717;48.034;11.186;2022-12-07T00:18:11;19.63;;;14.95;;
32228;SDS011;18717;48.034;11.186;2022-12-07T00:20:40;21.10;;;14.27;;
32228;SDS011;18717;48.034;11.186;2022-12-07T00:23:08;20.45;;;14.57;;
32228;SDS011;18717;48.034;11.186;2022-12-07T00:25:35;21.05;;;15.60;;
32228;SDS011;18717;48.034;11.186;2022-12-07T00:28:03;22.08;;;15.20;;
32228;SDS011;18717;48.034;11.186;2022-12-07T00:30:31;19.27;;;14.80;;
32228;SDS011;18717;48.034;11.186;2022-12-07T00:32:58;22.75;;;14.60;;
32228;SDS011;18717;48.034;11.186;2022-12-07T00:35:26;20.30;;;14.02;;
32228;SDS011;18717;48.034;11.186;2022-12-07T00:37:55;20.52;;;13.27;;
32228;SDS011;18717;48.034;11.186;2022-12-07T00:40:23;18.75;;;14.05;;
32228;SDS011;18717;48.034;11.186;2022-12-07T00:42:50;20.23;;;14.70;;
32228;SDS011;18717;48.034;11.186;2022-12-07T00:45:18;21.08;;;14.90;;
32228;SDS011;18717;48.034;11.186;2022-12-07T00:47:46;23.92;;;14.70;;
32228;SDS011;18717;48.034;11.186;2022-12-07T00:50:13;18.90;;;13.93;;
32228;SDS011;18717;48.034;11.186;2022-12-07T00:52:41;19.35;;;13.98;;
32228;SDS011;18717;48.034;11.186;2022-12-07T00:55:10;23.83;;;14.52;;
32228;SDS011;18717;48.034;11.186;2022-12-07T00:57:38;17.77;;;13.63;;
32228;SDS011;18717;48.034;11.186;2022-12-07T01:00:06;19.30;;;13.88;;
32228;SDS011;18717;48.034;11.186;2022-12-07T01:02:34;18.80;;;14.40;;
32228;SDS011;18717;48.034;11.186;2022-12-07T01:05:02;18.45;;;14.48;;
32228;SDS011;18717;48.034;11.186;2022-12-07T01:07:30;21.60;;;14.50;;
32228;SDS011;18717;48.034;11.186;2022-12-07T01:09:58;16.95;;;13.65;;
32228;SDS011;18717;48.034;11.186;2022-12-07T01:12:27;20.10;;;14.82;;
32228;SDS011;18717;48.034;11.186;2022-12-07T01:14:55;19.48;;;13.05;;
32228;SDS011;18717;48.034;11.186;2022-12-07T01:17:22;19.52;;;14.05;;
32228;SDS011;18717;48.034;11.186;2022-12-07T01:19:50;19.63;;;14.35;;
32228;SDS011;18717;48.034;11.186;2022-12-07T01:22:18;15.23;;;12.20;;
32228;SDS011;18717;48.034;11.186;2022-12-07T01:24:46;18.63;;;13.82;;
32228;SDS011;18717;48.034;11.186;2022-12-07T01:27:14;18.35;;;13.60;;
32228;SDS011;18717;48.034;11.186;2022-12-07T01:29:43;22.15;;;14.98;;
32228;SDS011;18717;48.034;11.186;2022-12-07T01:32:11;21.00;;;14.30;;
32228;SDS011;18717;48.034;11.186;2022-12-07T01:34:38;18.08;;;14.23;;
32228;SDS011;18717;48.034;11.186;2022-12-07T01:37:06;21.20;;;14.40;;
32228;SDS011;18717;48.034;11.186;2022-12-07T01:39:34;18.90;;;13.75;;
32228;SDS011;18717;48.034;11.186;2022-12-07T01:42:01;18.98;;;14.45;;
32228;SDS011;18717;48.034;11.186;2022-12-07T01:44:30;18.60;;;13.88;;
32228;SDS011;18717;48.034;11.186;2022-12-07T01:47:00;21.13;;;13.93;;
32228;SDS011;18717;48.034;11.186;2022-12-07T01:49:30;20.92;;;14.25;;
32228;SDS011;18717;48.034;11.186;2022-12-07T01:52:03;19.92;;;12.80;;
32228;SDS011;18717;48.034;11.186;2022-12-07T01:54:36;20.30;;;13.50;;
32228;SDS011;18717;48.034;11.186;2022-12-07T01:57:04;18.77;;;13.57;;
32228;SDS011;18717;48.034;11.186;2022-12-07T01:59:32;19.27;;;13.75;;
32228;SDS011;18717;48.034;11.186;2022-12-07T02:02:02;19.08;;;13.20;;
32228;SDS011;18717;48.034;11.186;2022-12-07T02:04:31;12.02;;;9.93;;
32228;SDS011;18717;48.034;11.186;2022-12-07T02:06:59;16.20;;;13.57;;
32228;SDS011;18717;48.034;11.186;2022-12-07T02:09:27;18.73;;;13.50;;
32228;SDS011;18717;48.034;11.186;2022-12-07T02:11:55;17.83;;;13.40;;
32228;SDS011;18717;48.034;11.186;2022-12-07T02:14:22;18.95;;;13.48;;
32228;SDS011;18717;48.034;11.186;2022-12-07T02:16:57;21.42;;;13.48;;
32228;SDS011;18717;48.034;11.186;2022-12-07T02:19:40;20.15;;;13.52;;
32228;SDS011;18717;48.034;11.186;2022-12-07T02:22:26;19.02;;;13.65;;
32228;SDS011;18717;48.034;11.186;2022-12-07T02:25:12;16.73;;;12.48;;
32228;SDS011;18717;48.034;11.186;2022-12-07T02:27:45;20.52;;;15.50;;
32228;SDS011;18717;48.034;11.186;2022-12-07T02:30:15;16.80;;;13.98;;
32228;SDS011;18717;48.034;11.186;2022-12-07T02:32:47;18.63;;;13.23;;
32228;SDS011;18717;48.034;11.186;2022-12-07T02:35:19;19.52;;;13.43;;
32228;SDS011;18717;48.034;11.186;2022-12-07T02:37:52;18.70;;;13.55;;
32228;SDS011;18717;48.034;11.186;2022-12-07T02:40:26;22.80;;;13.73;;
32228;SDS011;18717;48.034;11.186;2022-12-07T02:42:58;22.63;;;13.88;;
32228;SDS011;18717;48.034;11.186;2022-12-07T02:45:30;18.38;;;13.07;;
32228;SDS011;18717;48.034;11.186;2022-12-07T02:47:58;25.38;;;14.23;;
32228;SDS011;18717;48.034;11.186;2022-12-07T02:50:26;21.05;;;13.88;;
32228;SDS011;18717;48.034;11.186;2022-12-07T02:52:54;20.50;;;13.82;;
32228;SDS011;18717;48.034;11.186;2022-12-07T02:55:23;21.08;;;13.70;;
32228;SDS011;18717;48.034;11.186;2022-12-07T02:58:06;22.48;;;13.75;;
32228;SDS011;18717;48.034;11.186;2022-12-07T03:00:44;18.38;;;13.98;;
32228;SDS011;18717;48.034;11.186;2022-12-07T03:03:18;20.95;;;13.75;;
32228;SDS011;18717;48.034;11.186;2022-12-07T03:05:50;20.20;;;13.73;;
32228;SDS011;18717;48.034;11.186;2022-12-07T03:08:24;16.70;;;13.07;;
32228;SDS011;18717;48.034;11.186;2022-12-07T03:10:58;22.60;;;14.88;;
32228;SDS011;18717;48.034;11.186;2022-12-07T03:13:28;18.88;;;14.07;;
32228;SDS011;18717;48.034;11.186;2022-12-07T03:16:01;19.20;;;14.17;;
32228;SDS011;18717;48.034;11.186;2022-12-07T03:18:31;19.55;;;16.00;;
32228;SDS011;18717;48.034;11.186;2022-12-07T03:21:01;20.75;;;14.18;;
32228;SDS011;18717;48.034;11.186;2022-12-07T03:23:31;20.15;;;14.05;;
32228;SDS011;18717;48.034;11.186;2022-12-07T03:26:02;18.40;;;14.13;;
32228;SDS011;18717;48.034;11.186;2022-12-07T03:28:31;22.08;;;14.25;;
32228;SDS011;18717;48.034;11.186;2022-12-07T03:31:02;19.17;;;13.38;;
32228;SDS011;18717;48.034;11.186;2022-12-07T03:33:34;20.33;;;13.60;;
32228;SDS011;18717;48.034;11.186;2022-12-07T03:36:07;24.98;;;14.27;;
32228;SDS011;18717;48.034;11.186;2022-12-07T03:38:36;22.70;;;14.25;;
32228;SDS011;18717;48.034;11.186;2022-12-07T03:41:06;22.30;;;14.35;;
32228;SDS011;18717;48.034;11.186;2022-12-07T03:43:36;18.95;;;13.55;;
32228;SDS011;18717;48.034;11.186;2022-12-07T03:46:09;18.38;;;13.40;;
32228;SDS011;18717;48.034;11.186;2022-12-07T03:48:46;22.23;;;13.63;;
32228;SDS011;18717;48.034;11.186;2022-12-07T03:51:20;20.02;;;12.70;;
32228;SDS011;18717;48.034;11.186;2022-12-07T03:53:50;18.05;;;13.65;;
32228;SDS011;18717;48.034;11.186;2022-12-07T03:56:20;22.73;;;14.93;;
32228;SDS011;18717;48.034;11.186;2022-12-07T03:58:49;21.88;;;14.80;;
32228;SDS011;18717;48.034;11.186;2022-12-07T04:01:19;21.60;;;15.07;;
32228;SDS011;18717;48.034;11.186;2022-12-07T04:03:47;22.70;;;15.13;;
32228;SDS011;18717;48.034;11.186;2022-12-07T04:06:14;23.85;;;15.60;;
32228;SDS011;18717;48.034;11.186;2022-12-07T04:08:42;21.77;;;14.65;;
32228;SDS011;18717;48.034;11.186;2022-12-07T04:11:10;28.35;;;16.42;;
32228;SDS011;18717;48.034;11.186;2022-12-07T04:13:38;17.75;;;14.02;;
32228;SDS011;18717;48.034;11.186;2022-12-07T04:16:20;22.95;;;15.90;;
32228;SDS011;18717;48.034;11.186;2022-12-07T04:18:48;22.08;;;15.05;;
32228;SDS011;18717;48.034;11.186;2022-12-07T04:21:16;19.15;;;14.15;;
32228;SDS011;18717;48.034;11.186;2022-12-07T04:23:43;21.55;;;14.25;;
32228;SDS011;18717;48.034;11.186;2022-12-07T04:26:11;26.55;;;16.23;;
32228;SDS011;18717;48.034;11.186;2022-12-07T04:28:39;23.00;;;14.50;;
32228;SDS011;18717;48.034;11.186;2022-12-07T04:31:07;22.45;;;15.70;;
32228;SDS011;18717;48.034;11.186;2022-12-07T04:33:36;22.58;;;14.73;;
32228;SDS011;18717;48.034;11.186;2022-12-07T04:36:04;20.55;;;14.43;;
32228;SDS011;18717;48.034;11.186;2022-12-07T04:38:32;24.60;;;15.95;;
32228;SDS011;18717;48.034;11.186;2022-12-07T04:41:04;23.20;;;14.43;;
32228;SDS011;18717;48.034;11.186;2022-12-07T04:43:32;19.73;;;14.02;;
32228;SDS011;18717;48.034;11.186;2022-12-07T04:46:00;22.70;;;14.63;;
32228;SDS011;18717;48.034;11.186;2022-12-07T04:48:28;21.27;;;15.23;;
32228;SDS011;18717;48.034;11.186;2022-12-07T04:50:57;22.17;;;14.77;;
32228;SDS011;18717;48.034;11.186;2022-12-07T04:53:24;22.08;;;15.57;;
32228;SDS011;18717;48.034;11.186;2022-12-07T04:55:52;21.83;;;15.38;;
32228;SDS011;18717;48.034;11.186;2022-12-07T04:58:20;19.52;;;14.63;;
32228;SDS011;18717;48.034;11.186;2022-12-07T05:00:47;20.17;;;14.85;;
32228;SDS011;18717;48.034;11.186;2022-12-07T05:03:15;22.58;;;14.15;;
32228;SDS011;18717;48.034;11.186;2022-12-07T05:05:43;22.50;;;14.55;;
32228;SDS011;18717;48.034;11.186;2022-12-07T05:08:12;19.80;;;14.13;;
32228;SDS011;18717;48.034;11.186;2022-12-07T05:10:40;28.15;;;15.38;;
32228;SDS011;18717;48.034;11.186;2022-12-07T05:13:07;21.90;;;13.68;;
32228;SDS011;18717;48.034;11.186;2022-12-07T05:15:35;24.13;;;14.85;;
32228;SDS011;18717;48.034;11.186;2022-12-07T05:18:03;23.08;;;14.63;;
32228;SDS011;18717;48.034;11.186;2022-12-07T05:20:30;19.48;;;14.50;;
32228;SDS011;18717;48.034;11.186;2022-12-07T05:23:06;20.40;;;14.38;;
32228;SDS011;18717;48.034;11.186;2022-12-07T05:25:35;22.08;;;14.60;;
32228;SDS011;18717;48.034;11.186;2022-12-07T05:28:03;24.02;;;14.77;;
32228;SDS011;18717;48.034;11.186;2022-12-07T05:30:31;20.80;;;14.98;;
32228;SDS011;18717;48.034;11.186;2022-12-07T05:32:59;23.70;;;14.50;;
32228;SDS011;18717;48.034;11.186;2022-12-07T05:35:27;19.95;;;13.57;;
32228;SDS011;18717;48.034;11.186;2022-12-07T05:37:54;22.20;;;14.38;;
32228;SDS011;18717;48.034;11.186;2022-12-07T05:40:23;22.33;;;13.80;;
32228;SDS011;18717;48.034;11.186;2022-12-07T05:42:52;20.60;;;14.63;;
32228;SDS011;18717;48.034;11.186;2022-12-07T05:45:22;20.23;;;14.43;;
32228;SDS011;18717;48.034;11.186;2022-12-07T05:47:50;21.42;;;13.63;;
32228;SDS011;18717;48.034;11.186;2022-12-07T05:50:18;18.27;;;14.45;;
32228;SDS011;18717;48.034;11.186;2022-12-07T05:52:45;22.60;;;14.38;;
32228;SDS011;18717;48.034;11.186;2022-12-07T05:55:13;20.27;;;14.32;;
32228;SDS011;18717;48.034;11.186;2022-12-07T05:57:41;24.02;;;15.35;;
32228;SDS011;18717;48.034;11.186;2022-12-07T06:00:31;23.63;;;15.93;;
32228;SDS011;18717;48.034;11.186;2022-12-07T06:02:58;20.90;;;15.05;;
32228;SDS011;18717;48.034;11.186;2022-12-07T06:05:26;21.67;;;14.82;;
32228;SDS011;18717;48.034;11.186;2022-12-07T06:07:54;19.35;;;13.77;;
32228;SDS011;18717;48.034;11.186;2022-12-07T06:10:27;20.65;;;14.43;;
32228;SDS011;18717;48.034;11.186;2022-12-07T06:12:55;19.95;;;14.65;;
32228;SDS011;18717;48.034;11.186;2022-12-07T06:15:22;23.80;;;16.08;;
32228;SDS011;18717;48.034;11.186;2022-12-07T06:17:51;22.15;;;14.73;;
32228;SDS011;18717;48.034;11.186;2022-12-07T06:20:19;20.08;;;14.60;;
32228;SDS011;18717;48.034;11.186;2022-12-07T06:22:46;22.42;;;14.55;;
32228;SDS011;18717;48.034;11.186;2022-12-07T06:25:14;22.15;;;15.52;;
32228;SDS011;18717;48.034;11.186;2022-12-07T06:27:42;19.80;;;14.57;;
32228;SDS011;18717;48.034;11.186;2022-12-07T06:30:09;18.48;;;14.27;;
32228;SDS011;18717;48.034;11.186;2022-12-07T06:32:37;22.38;;;14.88;;
32228;SDS011;18717;48.034;11.186;2022-12-07T06:35:07;21.88;;;14.88;;
32228;SDS011;18717;48.034;11.186;2022-12-07T06:37:35;23.20;;;14.77;;
32228;SDS011;18717;48.034;11.186;2022-12-07T06:40:03;22.50;;;14.63;;
32228;SDS011;18717;48.034;11.186;2022-12-07T06:42:31;23.92;;;15.50;;
32228;SDS011;18717;48.034;11.186;2022-12-07T06:44:59;20.15;;;14.82;;
32228;SDS011;18717;48.034;11.186;2022-12-07T06:47:27;22.42;;;15.05;;
32228;SDS011;18717;48.034;11.186;2022-12-07T06:50:09;22.13;;;14.30;;
32228;SDS011;18717;48.034;11.186;2022-12-07T06:52:37;19.17;;;14.27;;
32228;SDS011;18717;48.034;11.186;2022-12-07T06:55:05;19.50;;;14.32;;
32228;SDS011;18717;48.034;11.186;2022-12-07T06:57:33;21.38;;;15.25;;
32228;SDS011;18717;48.034;11.186;2022-12-07T07:00:01;19.35;;;14.25;;
32228;SDS011;18717;48.034;11.186;2022-12-07T07:02:29;20.00;;;13.90;;
32228;SDS011;18717;48.034;11.186;2022-12-07T07:04:57;20.75;;;13.88;;
32228;SDS011;18717;48.034;11.186;2022-12-07T07:07:26;19.98;;;14.73;;
32228;SDS011;18717;48.034;11.186;2022-12-07T07:09:54;24.08;;;15.93;;
32228;SDS011;18717;48.034;11.186;2022-12-07T07:12:22;20.08;;;15.35;;
32228;SDS011;18717;48.034;11.186;2022-12-07T07:14:49;23.38;;;17.25;;
32228;SDS011;18717;48.034;11.186;2022-12-07T07:17:17;25.80;;;17.98;;
32228;SDS011;18717;48.034;11.186;2022-12-07T07:19:45;26.35;;;18.20;;
32228;SDS011;18717;48.034;11.186;2022-12-07T07:22:13;36.10;;;22.13;;
32228;SDS011;18717;48.034;11.186;2022-12-07T07:24:42;33.55;;;19.55;;
32228;SDS011;18717;48.034;11.186;2022-12-07T07:27:10;28.05;;;18.70;;
32228;SDS011;18717;48.034;11.186;2022-12-07T07:29:37;27.95;;;18.13;;
32228;SDS011;18717;48.034;11.186;2022-12-07T07:32:05;25.70;;;16.77;;
32228;SDS011;18717;48.034;11.186;2022-12-07T07:34:33;29.63;;;18.00;;
32228;SDS011;18717;48.034;11.186;2022-12-07T07:37:01;27.77;;;17.58;;
32228;SDS011;18717;48.034;11.186;2022-12-07T07:39:29;32.05;;;21.40;;
32228;SDS011;18717;48.034;11.186;2022-12-07T07:41:58;38.47;;;21.38;;
32228;SDS011;18717;48.034;11.186;2022-12-07T07:44:25;29.13;;;18.63;;
32228;SDS011;18717;48.034;11.186;2022-12-07T07:47:00;29.95;;;19.05;;
32228;SDS011;18717;48.034;11.186;2022-12-07T07:49:28;32.65;;;17.98;;
32228;SDS011;18717;48.034;11.186;2022-12-07T07:51:55;32.75;;;19.98;;
32228;SDS011;18717;48.034;11.186;2022-12-07T07:54:23;34.50;;;19.08;;
32228;SDS011;18717;48.034;11.186;2022-12-07T07:56:51;33.70;;;20.85;;
32228;SDS011;18717;48.034;11.186;2022-12-07T07:59:20;48.22;;;26.83;;
32228;SDS011;18717;48.034;11.186;2022-12-07T08:01:48;34.25;;;21.83;;
32228;SDS011;18717;48.034;11.186;2022-12-07T08:04:16;34.17;;;21.05;;
32228;SDS011;18717;48.034;11.186;2022-12-07T08:06:43;26.80;;;18.58;;
32228;SDS011;18717;48.034;11.186;2022-12-07T08:09:11;35.05;;;19.83;;
32228;SDS011;18717;48.034;11.186;2022-12-07T08:11:39;30.50;;;18.05;;
32228;SDS011;18717;48.034;11.186;2022-12-07T08:14:07;29.90;;;19.42;;
32228;SDS011;18717;48.034;11.186;2022-12-07T08:16:36;37.60;;;22.95;;
32228;SDS011;18717;48.034;11.186;2022-12-07T08:19:04;35.40;;;22.08;;
32228;SDS011;18717;48.034;11.186;2022-12-07T08:21:32;36.38;;;21.27;;
32228;SDS011;18717;48.034;11.186;2022-12-07T08:24:00;33.35;;;18.95;;
32228;SDS011;18717;48.034;11.186;2022-12-07T08:26:28;32.22;;;18.60;;
32228;SDS011;18717;48.034;11.186;2022-12-07T08:28:55;30.40;;;17.67;;
32228;SDS011;18717;48.034;11.186;2022-12-07T08:31:23;32.05;;;18.95;;
32228;SDS011;18717;48.034;11.186;2022-12-07T08:33:52;28.85;;;18.15;;
32228;SDS011;18717;48.034;11.186;2022-12-07T08:36:20;31.42;;;18.52;;
32228;SDS011;18717;48.034;11.186;2022-12-07T08:38:49;33.83;;;19.10;;
32228;SDS011;18717;48.034;11.186;2022-12-07T08:41:37;32.97;;;18.50;;
32228;SDS011;18717;48.034;11.186;2022-12-07T08:44:04;27.88;;;19.30;;
32228;SDS011;18717;48.034;11.186;2022-12-07T08:46:33;29.67;;;18.98;;
32228;SDS011;18717;48.034;11.186;2022-12-07T08:49:06;28.60;;;17.90;;
32228;SDS011;18717;48.034;11.186;2022-12-07T08:51:36;31.75;;;18.63;;
32228;SDS011;18717;48.034;11.186;2022-12-07T08:54:04;34.95;;;19.50;;
32228;SDS011;18717;48.034;11.186;2022-12-07T08:56:35;30.45;;;19.15;;
32228;SDS011;18717;48.034;11.186;2022-12-07T08:59:03;31.25;;;19.17;;
32228;SDS011;18717;48.034;11.186;2022-12-07T09:01:31;38.88;;;20.67;;
32228;SDS011;18717;48.034;11.186;2022-12-07T09:04:00;32.47;;;19.52;;
32228;SDS011;18717;48.034;11.186;2022-12-07T09:06:29;33.78;;;19.33;;
32228;SDS011;18717;48.034;11.186;2022-12-07T09:08:57;27.98;;;16.92;;
32228;SDS011;18717;48.034;11.186;2022-12-07T09:11:25;30.63;;;18.38;;
32228;SDS011;18717;48.034;11.186;2022-12-07T09:13:54;26.73;;;16.73;;
32228;SDS011;18717;48.034;11.186;2022-12-07T09:16:22;29.50;;;18.08;;
32228;SDS011;18717;48.034;11.186;2022-12-07T09:18:49;31.48;;;19.10;;
32228;SDS011;18717;48.034;11.186;2022-12-07T09:21:17;29.20;;;18.08;;
32228;SDS011;18717;48.034;11.186;2022-12-07T09:23:46;31.15;;;19.25;;
32228;SDS011;18717;48.034;11.186;2022-12-07T09:26:14;30.50;;;18.77;;
32228;SDS011;18717;48.034;11.186;2022-12-07T09:28:41;31.70;;;19.67;;
32228;SDS011;18717;48.034;11.186;2022-12-07T09:31:09;34.15;;;17.98;;
32228;SDS011;18717;48.034;11.186;2022-12-07T09:33:52;30.67;;;18.33;;
32228;SDS011;18717;48.034;11.186;2022-12-07T09:36:21;32.88;;;17.70;;
32228;SDS011;18717;48.034;11.186;2022-12-07T09:38:50;27.77;;;18.17;;
32228;SDS011;18717;48.034;11.186;2022-12-07T09:41:17;30.15;;;17.52;;
32228;SDS011;18717;48.034;11.186;2022-12-07T09:43:46;30.25;;;18.38;;
32228;SDS011;18717;48.034;11.186;2022-12-07T09:46:14;32.92;;;18.75;;
32228;SDS011;18717;48.034;11.186;2022-12-07T09:48:43;29.55;;;18.25;;
32228;SDS011;18717;48.034;11.186;2022-12-07T09:51:13;30.25;;;18.90;;
32228;SDS011;18717;48.034;11.186;2022-12-07T09:53:50;29.92;;;18.80;;
32228;SDS011;18717;48.034;11.186;2022-12-07T09:56:18;29.73;;;17.38;;
32228;SDS011;18717;48.034;11.186;2022-12-07T09:58:47;32.40;;;18.35;;
32228;SDS011;18717;48.034;11.186;2022-12-07T10:01:16;30.08;;;18.50;;
32228;SDS011;18717;48.034;11.186;2022-12-07T10:03:47;27.73;;;16.95;;
32228;SDS011;18717;48.034;11.186;2022-12-07T10:06:16;25.43;;;17.20;;
32228;SDS011;18717;48.034;11.186;2022-12-07T10:08:44;31.05;;;19.52;;
32228;SDS011;18717;48.034;11.186;2022-12-07T10:11:13;32.63;;;18.63;;
32228;SDS011;18717;48.034;11.186;2022-12-07T10:13:43;30.08;;;17.88;;
32228;SDS011;18717;48.034;11.186;2022-12-07T10:16:27;32.45;;;19.20;;
32228;SDS011;18717;48.034;11.186;2022-12-07T10:19:04;30.00;;;17.33;;
32228;SDS011;18717;48.034;11.186;2022-12-07T10:21:58;29.50;;;17.63;;
32228;SDS011;18717;48.034;11.186;2022-12-07T10:24:27;37.90;;;20.85;;
32228;SDS011;18717;48.034;11.186;2022-12-07T10:26:56;30.42;;;18.55;;
32228;SDS011;18717;48.034;11.186;2022-12-07T10:29:26;33.08;;;19.05;;
32228;SDS011;18717;48.034;11.186;2022-12-07T10:31:57;31.98;;;19.27;;
32228;SDS011;18717;48.034;11.186;2022-12-07T10:34:27;27.05;;;18.45;;
32228;SDS011;18717;48.034;11.186;2022-12-07T10:37:06;27.23;;;18.02;;
32228;SDS011;18717;48.034;11.186;2022-12-07T10:39:41;26.40;;;16.10;;
32228;SDS011;18717;48.034;11.186;2022-12-07T10:42:17;23.60;;;16.27;;
32228;SDS011;18717;48.034;11.186;2022-12-07T10:44:46;26.80;;;16.77;;
32228;SDS011;18717;48.034;11.186;2022-12-07T10:47:25;26.20;;;16.88;;
32228;SDS011;18717;48.034;11.186;2022-12-07T10:50:07;24.17;;;16.38;;
32228;SDS011;18717;48.034;11.186;2022-12-07T10:55:16;28.95;;;18.20;;
32228;SDS011;18717;48.034;11.186;2022-12-07T10:57:53;23.60;;;17.88;;
32228;SDS011;18717;48.034;11.186;2022-12-07T11:03:08;25.30;;;16.65;;
32228;SDS011;18717;48.034;11.186;2022-12-07T11:05:59;24.08;;;16.63;;
32228;SDS011;18717;48.034;11.186;2022-12-07T11:08:44;25.52;;;15.88;;
32228;SDS011;18717;48.034;11.186;2022-12-07T11:11:19;24.70;;;17.70;;
32228;SDS011;18717;48.034;11.186;2022-12-07T11:13:55;26.38;;;15.80;;
32228;SDS011;18717;48.034;11.186;2022-12-07T11:16:25;23.50;;;15.75;;
32228;SDS011;18717;48.034;11.186;2022-12-07T11:19:04;23.48;;;15.50;;
32228;SDS011;18717;48.034;11.186;2022-12-07T11:21:42;19.55;;;16.17;;
32228;SDS011;18717;48.034;11.186;2022-12-07T11:24:14;18.05;;;14.02;;
32228;SDS011;18717;48.034;11.186;2022-12-07T11:26:50;23.67;;;15.15;;
32228;SDS011;18717;48.034;11.186;2022-12-07T11:29:32;22.05;;;15.68;;
32228;SDS011;18717;48.034;11.186;2022-12-07T11:32:10;21.30;;;15.35;;
32228;SDS011;18717;48.034;11.186;2022-12-07T11:34:43;23.45;;;16.73;;
32228;SDS011;18717;48.034;11.186;2022-12-07T11:37:17;22.42;;;15.65;;
32228;SDS011;18717;48.034;11.186;2022-12-07T11:39:46;21.10;;;15.73;;
32228;SDS011;18717;48.034;11.186;2022-12-07T11:42:20;19.90;;;15.05;;
32228;SDS011;18717;48.034;11.186;2022-12-07T11:44:52;15.87;;;11.90;;
32228;SDS011;18717;48.034;11.186;2022-12-07T11:47:22;23.15;;;15.70;;
32228;SDS011;18717;48.034;11.186;2022-12-07T11:49:54;22.95;;;15.88;;
32228;SDS011;18717;48.034;11.186;2022-12-07T11:52:26;19.67;;;15.98;;
32228;SDS011;18717;48.034;11.186;2022-12-07T11:54:58;21.13;;;15.20;;
32228;SDS011;18717;48.034;11.186;2022-12-07T11:57:28;23.20;;;16.05;;
32228;SDS011;18717;48.034;11.186;2022-12-07T12:00:03;23.70;;;16.48;;
32228;SDS011;18717;48.034;11.186;2022-12-07T12:02:35;20.08;;;15.05;;
32228;SDS011;18717;48.034;11.186;2022-12-07T12:05:12;24.02;;;16.95;;
32228;SDS011;18717;48.034;11.186;2022-12-07T12:07:41;21.63;;;15.73;;
32228;SDS011;18717;48.034;11.186;2022-12-07T12:10:34;24.08;;;17.23;;
32228;SDS011;18717;48.034;11.186;2022-12-07T12:13:11;22.92;;;16.20;;
32228;SDS011;18717;48.034;11.186;2022-12-07T12:16:31;21.75;;;15.90;;
32228;SDS011;18717;48.034;11.186;2022-12-07T12:19:18;24.73;;;17.05;;
32228;SDS011;18717;48.034;11.186;2022-12-07T12:21:53;20.98;;;16.20;;
32228;SDS011;18717;48.034;11.186;2022-12-07T12:24:24;21.23;;;15.98;;
32228;SDS011;18717;48.034;11.186;2022-12-07T12:26:55;19.45;;;14.10;;
32228;SDS011;18717;48.034;11.186;2022-12-07T12:29:26;20.90;;;15.32;;
32228;SDS011;18717;48.034;11.186;2022-12-07T12:32:07;20.70;;;15.57;;
32228;SDS011;18717;48.034;11.186;2022-12-07T12:34:41;23.02;;;15.50;;
32228;SDS011;18717;48.034;11.186;2022-12-07T12:37:43;23.52;;;16.52;;
32228;SDS011;18717;48.034;11.186;2022-12-07T12:49:34;24.52;;;15.35;;
32228;SDS011;18717;48.034;11.186;2022-12-07T12:57:47;22.48;;;14.75;;
32228;SDS011;18717;48.034;11.186;2022-12-07T13:04:17;20.60;;;14.60;;
32228;SDS011;18717;48.034;11.186;2022-12-07T13:06:51;18.75;;;13.02;;
32228;SDS011;18717;48.034;11.186;2022-12-07T13:09:20;19.58;;;13.27;;
32228;SDS011;18717;48.034;11.186;2022-12-07T13:11:50;16.67;;;13.55;;
32228;SDS011;18717;48.034;11.186;2022-12-07T13:20:44;15.35;;;11.52;;
32228;SDS011;18717;48.034;11.186;2022-12-07T13:23:21;13.82;;;10.85;;
32228;SDS011;18717;48.034;11.186;2022-12-07T13:25:51;14.48;;;11.77;;
32228;SDS011;18717;48.034;11.186;2022-12-07T13:30:57;13.43;;;11.15;;
32228;SDS011;18717;48.034;11.186;2022-12-07T13:33:28;12.60;;;10.57;;
32228;SDS011;18717;48.034;11.186;2022-12-07T13:35:56;12.02;;;10.82;;
32228;SDS011;18717;48.034;11.186;2022-12-07T13:38:29;13.27;;;10.27;;
32228;SDS011;18717;48.034;11.186;2022-12-07T13:41:10;13.10;;;11.50;;
32228;SDS011;18717;48.034;11.186;2022-12-07T13:43:43;30.88;;;10.95;;
32228;SDS011;18717;48.034;11.186;2022-12-07T13:46:12;13.63;;;10.15;;
32228;SDS011;18717;48.034;11.186;2022-12-07T13:48:44;12.85;;;11.02;;
32228;SDS011;18717;48.034;11.186;2022-12-07T13:51:17;17.30;;;10.45;;
32228;SDS011;18717;48.034;11.186;2022-12-07T13:53:49;12.45;;;9.27;;
32228;SDS011;18717;48.034;11.186;2022-12-07T13:56:17;11.83;;;9.97;;
32228;SDS011;18717;48.034;11.186;2022-12-07T13:58:45;12.48;;;10.30;;
32228;SDS011;18717;48.034;11.186;2022-12-07T14:01:13;16.20;;;10.02;;
32228;SDS011;18717;48.034;11.186;2022-12-07T14:03:41;10.45;;;9.35;;
32228;SDS011;18717;48.034;11.186;2022-12-07T14:06:14;11.20;;;10.00;;
32228;SDS011;18717;48.034;11.186;2022-12-07T14:08:43;11.00;;;9.77;;
32228;SDS011;18717;48.034;11.186;2022-12-07T14:11:17;10.27;;;9.35;;
32228;SDS011;18717;48.034;11.186;2022-12-07T14:13:56;14.48;;;10.80;;
32228;SDS011;18717;48.034;11.186;2022-12-07T14:16:27;12.80;;;10.70;;
32228;SDS011;18717;48.034;11.186;2022-12-07T14:18:56;11.80;;;10.65;;
32228;SDS011;18717;48.034;11.186;2022-12-07T14:21:25;11.48;;;10.20;;
32228;SDS011;18717;48.034;11.186;2022-12-07T14:24:15;12.88;;;9.80;;
32228;SDS011;18717;48.034;11.186;2022-12-07T14:26:46;12.73;;;9.65;;
32228;SDS011;18717;48.034;11.186;2022-12-07T14:29:30;11.15;;;10.07;;
32228;SDS011;18717;48.034;11.186;2022-12-07T14:32:11;11.73;;;10.52;;
32228;SDS011;18717;48.034;11.186;2022-12-07T14:34:56;10.65;;;9.55;;
32228;SDS011;18717;48.034;11.186;2022-12-07T14:37:25;10.95;;;9.85;;
32228;SDS011;18717;48.034;11.186;2022-12-07T14:39:53;15.13;;;10.07;;
32228;SDS011;18717;48.034;11.186;2022-12-07T14:42:23;10.63;;;9.63;;
32228;SDS011;18717;48.034;11.186;2022-12-07T14:44:51;10.35;;;9.05;;
32228;SDS011;18717;48.034;11.186;2022-12-07T14:47:19;10.52;;;9.43;;
32228;SDS011;18717;48.034;11.186;2022-12-07T14:50:07;11.10;;;10.02;;
32228;SDS011;18717;48.034;11.186;2022-12-07T14:52:38;11.63;;;10.43;;
32228;SDS011;18717;48.034;11.186;2022-12-07T14:55:27;12.93;;;9.45;;
32228;SDS011;18717;48.034;11.186;2022-12-07T14:57:57;11.70;;;10.25;;
32228;SDS011;18717;48.034;11.186;2022-12-07T15:00:26;10.38;;;9.38;;
32228;SDS011;18717;48.034;11.186;2022-12-07T15:02:55;11.68;;;9.57;;